Time;durP1;ratioP1;P1;durP2;ratioP2;P2;SDS_P1;SDS_P2;PMS_P1;PMS_P2;Temp;Humidity;BMP_temperature;BMP_pressure;BME280_temperature;BME280_humidity;BME280_pressure;Samples;Min_cycle;Max_cycle;Signal;HPM_P1;HPM_P2
2022/05/28 00:01:14;;;;;;;21.85;13.07;;;21.10;99.90;;;;;;5023760;28;20069;-76
2022/05/28 00:03:41;;;;;;;20.92;13.05;;;21.10;99.90;;;;;;5031186;28;20038;-76
2022/05/28 00:06:21;;;;;;;25.50;14.77;;;21.10;99.90;;;;;;5023743;28;20480;-76
2022/05/28 00:08:48;;;;;;;24.35;12.98;;;21.10;99.90;;;;;;5025074;28;20037;-76
2022/05/28 00:11:21;;;;;;;16.65;12.55;;;21.10;99.90;;;;;;5025121;28;20026;-76
2022/05/28 00:13:48;;;;;;;22.42;14.10;;;21.00;99.90;;;;;;5022818;28;20033;-77
2022/05/28 00:16:14;;;;;;;28.52;14.02;;;21.00;99.90;;;;;;5025096;28;20033;-76
2022/05/28 00:18:40;;;;;;;23.80;13.57;;;20.90;99.90;;;;;;5027880;28;20391;-76
2022/05/28 00:21:10;;;;;;;22.98;13.50;;;20.90;99.90;;;;;;5020931;28;20033;-76
2022/05/28 00:23:37;;;;;;;21.08;13.02;;;21.00;99.90;;;;;;5031044;28;20120;-76
2022/05/28 00:26:04;;;;;;;20.45;13.18;;;21.00;99.90;;;;;;5028786;28;20468;-76
2022/05/28 00:28:30;;;;;;;29.08;15.05;;;20.90;99.90;;;;;;5027107;28;20030;-76
2022/05/28 00:30:56;;;;;;;23.08;15.90;;;21.00;99.90;;;;;;5021555;28;20030;-77
2022/05/28 00:33:23;;;;;;;22.95;14.88;;;21.00;99.90;;;;;;5021529;28;20034;-76
2022/05/28 00:35:49;;;;;;;25.95;15.73;;;21.00;99.90;;;;;;5031669;28;20017;-76
2022/05/28 00:38:15;;;;;;;26.42;14.98;;;21.10;99.90;;;;;;5028914;28;20033;-77
2022/05/28 00:40:50;;;;;;;19.92;13.98;;;21.10;99.90;;;;;;5030804;28;20029;-76
2022/05/28 00:43:16;;;;;;;24.25;13.32;;;20.90;99.90;;;;;;5030932;28;20124;-76
2022/05/28 00:45:44;;;;;;;18.80;12.55;;;20.90;99.90;;;;;;5027815;28;20033;-76
2022/05/28 00:48:11;;;;;;;22.48;12.55;;;20.70;99.90;;;;;;5021946;28;20080;-76
2022/05/28 00:50:38;;;;;;;23.80;13.70;;;20.60;99.90;;;;;;5026581;28;20037;-77
2022/05/28 00:53:05;;;;;;;25.08;14.00;;;20.70;99.90;;;;;;5029370;28;20533;-76
2022/05/28 00:55:33;;;;;;;20.65;13.73;;;20.60;99.90;;;;;;5024709;28;20025;-76
2022/05/28 00:58:01;;;;;;;24.42;12.82;;;20.60;99.90;;;;;;5024240;28;20033;-77
2022/05/28 01:00:27;;;;;;;22.40;13.38;;;20.60;99.90;;;;;;5025538;28;20030;-76
2022/05/28 01:02:59;;;;;;;27.90;15.05;;;20.40;99.90;;;;;;5029684;28;20025;-77
2022/05/28 01:05:37;;;;;;;20.83;13.55;;;20.40;99.90;;;;;;5022216;28;20050;-76
2022/05/28 01:08:09;;;;;;;21.55;13.80;;;20.40;99.90;;;;;;5019204;28;20450;-76
2022/05/28 01:10:57;;;;;;;25.05;14.15;;;20.40;99.90;;;;;;5026044;28;20037;-76
2022/05/28 01:13:29;;;;;;;20.48;14.27;;;20.40;99.90;;;;;;5029656;28;20026;-76
2022/05/28 01:16:01;;;;;;;21.85;13.98;;;20.20;99.90;;;;;;5019469;28;20379;-76
2022/05/28 01:18:32;;;;;;;21.65;14.63;;;20.20;99.90;;;;;;5026828;28;20029;-76
2022/05/28 01:21:13;;;;;;;23.48;14.43;;;20.10;99.90;;;;;;5023574;28;20139;-77
2022/05/28 01:23:48;;;;;;;22.83;14.40;;;20.00;99.90;;;;;;5025538;28;20037;-76
2022/05/28 01:26:34;;;;;;;20.50;13.27;;;19.90;99.90;;;;;;5021599;28;21489;-76
2022/05/28 01:29:05;;;;;;;21.10;14.80;;;19.90;99.90;;;;;;5030414;28;20104;-76
2022/05/28 01:31:32;;;;;;;33.53;15.27;;;19.90;99.90;;;;;;5025845;28;20204;-76
2022/05/28 01:34:01;;;;;;;19.38;13.82;;;20.00;99.90;;;;;;5034213;28;20103;-77
2022/05/28 01:36:28;;;;;;;23.50;14.27;;;20.00;99.90;;;;;;5032072;28;20022;-77
2022/05/28 01:38:55;;;;;;;21.38;13.60;;;19.90;99.90;;;;;;5036220;28;20087;-76
2022/05/28 01:41:22;;;;;;;20.80;13.02;;;19.80;99.90;;;;;;5030608;28;20097;-76
2022/05/28 01:43:51;;;;;;;18.90;13.80;;;19.80;99.90;;;;;;5027833;28;20033;-76
2022/05/28 01:46:19;;;;;;;21.35;14.75;;;19.70;99.90;;;;;;5027157;28;20061;-76
2022/05/28 01:48:47;;;;;;;19.27;14.65;;;19.90;99.90;;;;;;5028525;28;20037;-76
2022/05/28 01:51:15;;;;;;;20.00;14.38;;;19.90;99.90;;;;;;5026049;28;20025;-76
2022/05/28 01:56:28;;;;;;;21.77;13.10;;;19.60;99.90;;;;;;5028276;28;20683;-76
2022/05/28 01:58:53;;;;;;;20.95;15.18;;;19.40;99.90;;;;;;5033568;28;20468;-76
2022/05/28 02:01:19;;;;;;;20.48;14.18;;;19.40;99.90;;;;;;5032991;28;20132;-76
2022/05/28 02:03:48;;;;;;;20.92;13.20;;;19.50;99.90;;;;;;5028000;28;20137;-76
2022/05/28 02:06:14;;;;;;;26.13;15.20;;;19.40;99.90;;;;;;5032429;28;20026;-76
2022/05/28 02:08:42;;;;;;;27.73;16.23;;;19.30;99.90;;;;;;5029343;28;20035;-76
2022/05/28 02:11:34;;;;;;;21.45;16.10;;;19.40;99.90;;;;;;5029947;28;20030;-76
2022/05/28 02:14:29;;;;;;;21.38;15.05;;;19.40;99.90;;;;;;5024995;28;20033;-76
2022/05/28 02:17:19;;;;;;;21.77;14.77;;;19.50;99.90;;;;;;5031157;28;20036;-76
2022/05/28 02:20:13;;;;;;;27.52;15.63;;;19.50;99.90;;;;;;5026457;28;20067;-76
2022/05/28 02:22:39;;;;;;;23.50;15.02;;;19.50;99.90;;;;;;5023263;28;20026;-76
2022/05/28 02:25:15;;;;;;;24.83;15.65;;;19.50;99.90;;;;;;5021622;28;20103;-76
2022/05/28 02:27:42;;;;;;;25.73;15.63;;;19.80;99.90;;;;;;5027762;28;20025;-76
2022/05/28 02:30:10;;;;;;;27.90;15.95;;;20.00;99.90;;;;;;5026111;28;20036;-76
2022/05/28 02:32:35;;;;;;;27.15;15.57;;;20.10;99.90;;;;;;5013942;28;20033;-76
2022/05/28 02:35:01;;;;;;;26.52;14.02;;;20.10;99.90;;;;;;5028835;28;20052;-76
2022/05/28 02:37:28;;;;;;;24.95;15.30;;;19.70;99.90;;;;;;5024994;28;20033;-77
2022/05/28 02:39:54;;;;;;;28.13;14.95;;;19.70;99.90;;;;;;5035888;28;20036;-76
2022/05/28 02:42:19;;;;;;;21.35;14.73;;;19.70;99.90;;;;;;5025080;28;20021;-76
2022/05/28 02:44:45;;;;;;;24.35;14.70;;;19.50;99.90;;;;;;5020175;28;20387;-76
2022/05/28 02:47:11;;;;;;;24.63;15.25;;;19.40;99.90;;;;;;5035272;28;20044;-76
2022/05/28 02:49:37;;;;;;;19.13;13.70;;;19.40;99.90;;;;;;5023518;28;20633;-76
2022/05/28 02:52:05;;;;;;;23.70;13.95;;;19.30;99.90;;;;;;5028271;28;20080;-76
2022/05/28 02:54:31;;;;;;;23.15;15.10;;;19.20;99.90;;;;;;5032837;28;20394;-76
2022/05/28 02:56:57;;;;;;;23.55;15.65;;;19.20;99.90;;;;;;5027125;28;20022;-77
2022/05/28 02:59:23;;;;;;;21.88;14.48;;;19.30;99.90;;;;;;5029799;28;20112;-76
2022/05/28 03:01:50;;;;;;;24.33;15.60;;;19.30;99.90;;;;;;5025401;28;20109;-75
2022/05/28 03:04:17;;;;;;;22.05;15.00;;;19.20;99.90;;;;;;5023359;28;20060;-75
2022/05/28 03:06:43;;;;;;;25.60;14.50;;;19.20;99.90;;;;;;5022511;28;20618;-76
2022/05/28 03:09:09;;;;;;;24.33;14.57;;;19.20;99.90;;;;;;5026038;28;20033;-77
2022/05/28 03:11:36;;;;;;;25.35;15.82;;;19.30;99.90;;;;;;5018902;28;20460;-77
2022/05/28 03:14:02;;;;;;;24.08;15.65;;;19.30;99.90;;;;;;5023628;28;20099;-77
2022/05/28 03:16:28;;;;;;;24.02;14.13;;;19.40;99.90;;;;;;5017897;28;20033;-77
2022/05/28 03:18:54;;;;;;;22.25;16.08;;;19.40;99.90;;;;;;5014641;28;20041;-77
2022/05/28 03:21:20;;;;;;;28.15;17.15;;;19.40;99.90;;;;;;5016193;28;20021;-77
2022/05/28 03:23:49;;;;;;;23.73;16.15;;;19.40;99.90;;;;;;5020654;28;20128;-77
2022/05/28 03:26:16;;;;;;;26.92;16.52;;;19.40;99.90;;;;;;5018095;28;20623;-77
2022/05/28 03:28:42;;;;;;;21.63;15.32;;;19.40;99.90;;;;;;5023544;28;20037;-77
2022/05/28 03:31:08;;;;;;;23.45;14.38;;;19.50;99.90;;;;;;5025419;28;20064;-77
2022/05/28 03:33:34;;;;;;;21.02;14.68;;;19.50;99.90;;;;;;5024247;28;20612;-77
2022/05/28 03:35:59;;;;;;;25.13;15.82;;;19.30;99.90;;;;;;5023462;28;20029;-77
2022/05/28 03:38:25;;;;;;;25.98;16.05;;;19.40;99.90;;;;;;5022875;28;20128;-77
2022/05/28 03:40:51;;;;;;;24.58;15.10;;;19.30;99.90;;;;;;5029617;28;20040;-77
2022/05/28 03:43:16;;;;;;;23.77;16.25;;;19.40;99.90;;;;;;5022001;28;20060;-77
2022/05/28 03:45:42;;;;;;;21.42;15.50;;;19.40;99.90;;;;;;5024306;28;20033;-77
2022/05/28 03:48:10;;;;;;;23.70;16.00;;;19.40;99.90;;;;;;5027791;28;20060;-75
2022/05/28 03:50:36;;;;;;;29.45;16.42;;;19.20;99.90;;;;;;5027356;28;20104;-75
2022/05/28 03:53:02;;;;;;;28.90;17.45;;;19.20;99.90;;;;;;5029627;28;20105;-75
2022/05/28 03:55:27;;;;;;;25.15;15.93;;;19.20;99.90;;;;;;5025231;28;20061;-75
2022/05/28 03:57:53;;;;;;;26.35;16.30;;;19.40;99.90;;;;;;5028253;28;20040;-75
2022/05/28 04:00:19;;;;;;;24.48;16.77;;;19.40;99.90;;;;;;5021227;28;20566;-75
2022/05/28 04:02:45;;;;;;;25.27;16.35;;;19.50;99.90;;;;;;5034868;28;20101;-77
2022/05/28 04:05:11;;;;;;;21.65;15.13;;;19.60;99.90;;;;;;5012089;28;20416;-76
2022/05/28 04:07:37;;;;;;;26.67;16.15;;;19.60;99.90;;;;;;5029974;28;20045;-76
2022/05/28 04:10:05;;;;;;;20.13;14.10;;;19.50;99.90;;;;;;5021389;28;20038;-76
2022/05/28 04:12:31;;;;;;;25.38;15.23;;;19.40;99.90;;;;;;5018621;28;20116;-76
2022/05/28 04:14:56;;;;;;;22.20;16.40;;;19.40;99.90;;;;;;5018702;28;20112;-75
2022/05/28 04:17:22;;;;;;;23.08;15.45;;;19.40;99.90;;;;;;5030701;28;20173;-76
2022/05/28 04:19:48;;;;;;;20.00;14.48;;;19.20;99.90;;;;;;5018480;28;20053;-76
2022/05/28 04:22:14;;;;;;;26.38;16.38;;;19.10;99.90;;;;;;5027137;28;20620;-76
2022/05/28 04:24:40;;;;;;;22.92;15.10;;;19.10;99.90;;;;;;5019738;28;20616;-76
2022/05/28 04:27:06;;;;;;;24.08;15.63;;;19.10;99.90;;;;;;5027127;28;20136;-76
2022/05/28 04:29:31;;;;;;;27.48;16.95;;;19.00;99.90;;;;;;5019135;28;20392;-76
2022/05/28 04:31:57;;;;;;;26.15;16.45;;;19.00;99.90;;;;;;5014630;28;20045;-75
2022/05/28 04:34:23;;;;;;;29.55;15.82;;;19.20;99.90;;;;;;5016181;28;20026;-76
2022/05/28 04:36:48;;;;;;;25.67;14.90;;;19.30;99.90;;;;;;5013621;28;20034;-76
2022/05/28 04:39:14;;;;;;;22.83;16.13;;;19.30;99.90;;;;;;5018960;28;20055;-75
2022/05/28 04:41:40;;;;;;;24.77;15.60;;;19.40;99.90;;;;;;5017826;28;20025;-76
2022/05/28 04:44:05;;;;;;;20.70;14.43;;;19.40;99.90;;;;;;5018986;28;20041;-76
2022/05/28 04:46:31;;;;;;;24.58;15.77;;;19.10;99.90;;;;;;5014218;28;20038;-75
2022/05/28 04:48:57;;;;;;;33.05;17.70;;;19.10;99.90;;;;;;5026996;28;20056;-76
2022/05/28 04:51:23;;;;;;;28.13;18.17;;;19.00;99.90;;;;;;5023085;28;20037;-76
2022/05/28 04:53:49;;;;;;;28.00;18.50;;;19.00;99.90;;;;;;5021697;28;20033;-76
2022/05/28 04:56:15;;;;;;;35.38;17.88;;;19.20;99.90;;;;;;5021752;28;20064;-76
2022/05/28 04:58:42;;;;;;;31.52;21.70;;;19.30;99.90;;;;;;5017527;28;20071;-76
2022/05/28 05:01:12;;;;;;;23.50;16.77;;;19.40;99.90;;;;;;5015331;28;20115;-75
2022/05/28 05:03:38;;;;;;;26.40;17.88;;;19.30;99.90;;;;;;5011114;28;20056;-76
2022/05/28 05:06:03;;;;;;;25.63;18.45;;;19.30;99.90;;;;;;5025609;28;20034;-75
2022/05/28 05:08:30;;;;;;;30.02;18.88;;;19.20;99.90;;;;;;5024067;28;20025;-76
2022/05/28 05:10:56;;;;;;;24.73;18.70;;;19.40;99.90;;;;;;5022559;28;20056;-75
2022/05/28 05:13:22;;;;;;;36.00;19.10;;;19.50;99.90;;;;;;5019596;28;20077;-76
2022/05/28 05:15:48;;;;;;;30.85;19.63;;;19.40;99.90;;;;;;5012538;28;20029;-76
2022/05/28 05:18:13;;;;;;;31.45;20.60;;;19.20;99.90;;;;;;5017072;28;20064;-76
2022/05/28 05:20:39;;;;;;;28.20;19.85;;;19.30;99.90;;;;;;5018683;28;20037;-76
2022/05/28 05:23:05;;;;;;;25.92;18.23;;;19.40;99.90;;;;;;5016989;28;20041;-76
2022/05/28 05:25:32;;;;;;;29.50;19.58;;;19.20;99.90;;;;;;5020445;28;20038;-76
2022/05/28 05:27:58;;;;;;;28.85;18.42;;;19.30;99.90;;;;;;5022840;28;20040;-76
2022/05/28 05:30:23;;;;;;;32.55;17.55;;;19.50;99.90;;;;;;5020060;28;20033;-76
2022/05/28 05:32:49;;;;;;;33.55;16.83;;;19.50;99.90;;;;;;5015165;28;20079;-76
2022/05/28 05:35:15;;;;;;;44.20;18.00;;;19.40;99.90;;;;;;5018532;28;20045;-76
2022/05/28 05:37:40;;;;;;;26.63;17.88;;;19.40;99.90;;;;;;5015781;28;20380;-75
2022/05/28 05:40:10;;;;;;;26.33;16.52;;;19.30;99.90;;;;;;5019757;28;20033;-76
2022/05/28 05:42:36;;;;;;;25.65;15.25;;;19.40;99.90;;;;;;5019412;28;20025;-76
2022/05/28 05:45:02;;;;;;;22.33;15.52;;;19.50;99.90;;;;;;5014527;28;20048;-76
2022/05/28 05:47:27;;;;;;;19.63;13.20;;;19.50;99.90;;;;;;5015850;28;20037;-76
2022/05/28 05:49:53;;;;;;;15.70;12.07;;;19.40;99.90;;;;;;5016495;28;20120;-76
2022/05/28 05:52:19;;;;;;;16.55;11.80;;;19.60;99.90;;;;;;5021782;28;20589;-76
2022/05/28 05:54:44;;;;;;;34.75;13.55;;;19.70;99.90;;;;;;5014761;28;21465;-76
2022/05/28 05:57:10;;;;;;;19.52;13.82;;;19.70;99.90;;;;;;5023759;28;20700;-76
2022/05/28 05:59:36;;;;;;;29.95;14.45;;;19.80;99.90;;;;;;5020049;28;20032;-76
2022/05/28 06:02:01;;;;;;;21.80;14.75;;;19.90;99.90;;;;;;5025273;28;20045;-76
2022/05/28 06:04:27;;;;;;;22.40;13.65;;;19.90;99.90;;;;;;5020294;28;20179;-76
2022/05/28 06:06:53;;;;;;;20.52;11.98;;;20.00;99.90;;;;;;5023433;28;20083;-76
2022/05/28 06:09:18;;;;;;;26.52;13.95;;;20.00;99.90;;;;;;5016746;28;20034;-76
2022/05/28 06:11:44;;;;;;;18.02;12.15;;;20.00;99.90;;;;;;5027452;28;20387;-75
2022/05/28 06:14:10;;;;;;;16.33;12.57;;;20.10;99.90;;;;;;5026033;28;20037;-74
2022/05/28 06:16:36;;;;;;;15.45;11.50;;;20.10;99.90;;;;;;5029731;28;20045;-73
2022/05/28 06:19:03;;;;;;;20.65;12.38;;;20.20;99.90;;;;;;5019779;28;20026;-74
2022/05/28 06:21:29;;;;;;;18.55;12.75;;;20.20;99.90;;;;;;5015630;28;20472;-74
2022/05/28 06:23:55;;;;;;;19.75;12.32;;;20.30;99.90;;;;;;5018888;28;20041;-75
2022/05/28 06:26:21;;;;;;;16.40;12.35;;;20.40;99.90;;;;;;5015740;28;20037;-75
2022/05/28 06:28:46;;;;;;;16.25;11.43;;;20.40;99.90;;;;;;5016564;28;20119;-74
2022/05/28 06:31:13;;;;;;;20.77;13.65;;;20.40;99.90;;;;;;5009721;28;20403;-74
2022/05/28 06:33:40;;;;;;;19.35;12.35;;;20.50;99.90;;;;;;5008864;28;20166;-73
2022/05/28 06:36:08;;;;;;;20.10;13.00;;;20.50;99.90;;;;;;5021649;28;20029;-73
2022/05/28 06:38:35;;;;;;;19.45;12.90;;;20.50;99.90;;;;;;5015916;28;20037;-74
2022/05/28 06:41:02;;;;;;;20.10;12.30;;;20.60;99.90;;;;;;5013106;28;20593;-75
2022/05/28 06:43:28;;;;;;;16.35;11.20;;;20.70;99.90;;;;;;5012367;28;20028;-74
2022/05/28 06:45:54;;;;;;;17.08;11.82;;;20.80;99.90;;;;;;5014097;28;20022;-74
2022/05/28 06:48:20;;;;;;;18.75;13.00;;;20.90;99.90;;;;;;5018452;28;20044;-75
2022/05/28 06:51:04;;;;;;;13.90;11.25;;;21.00;99.90;;;;;;5023769;28;20395;-76
2022/05/28 06:53:34;;;;;;;15.27;12.23;;;21.30;99.90;;;;;;5025375;28;20049;-76
2022/05/28 06:56:00;;;;;;;20.02;12.45;;;21.50;99.90;;;;;;5015301;28;20064;-76
2022/05/28 06:58:26;;;;;;;16.20;11.73;;;21.60;99.90;;;;;;5022848;28;20053;-76
2022/05/28 07:00:52;;;;;;;15.57;11.15;;;21.80;99.90;;;;;;5020263;28;20083;-76
2022/05/28 07:03:21;;;;;;;15.50;11.30;;;22.00;99.90;;;;;;5017606;28;20029;-76
2022/05/28 07:05:47;;;;;;;17.40;10.48;;;22.30;99.90;;;;;;5023718;28;21198;-77
2022/05/28 07:08:13;;;;;;;13.63;9.82;;;22.50;99.90;;;;;;5023455;28;20033;-76
2022/05/28 07:10:45;;;;;;;12.32;9.05;;;22.70;99.90;;;;;;5028639;28;20112;-76
2022/05/28 07:13:11;;;;;;;13.93;10.23;;;22.90;99.50;;;;;;5023809;28;20407;-76
2022/05/28 07:15:37;;;;;;;14.13;10.05;;;22.90;99.70;;;;;;5021466;28;20025;-76
2022/05/28 07:18:03;;;;;;;13.43;8.82;;;22.80;99.90;;;;;;5026094;28;20530;-76
2022/05/28 07:20:29;;;;;;;22.10;9.23;;;23.20;99.40;;;;;;5023519;28;20539;-76
2022/05/28 07:22:55;;;;;;;14.95;9.55;;;23.70;98.70;;;;;;5026397;28;20136;-76
2022/05/28 07:25:21;;;;;;;10.35;7.60;;;24.60;98.40;;;;;;5028503;28;20044;-75
2022/05/28 07:27:47;;;;;;;15.13;7.78;;;25.60;96.50;;;;;;5028300;28;20047;-75
2022/05/28 07:30:12;;;;;;;17.23;8.55;;;26.20;95.30;;;;;;5027493;28;20069;-75
2022/05/28 07:32:38;;;;;;;10.23;6.38;;;26.40;94.60;;;;;;5032588;28;20072;-75
2022/05/28 07:35:05;;;;;;;9.77;7.35;;;27.40;92.80;;;;;;5028779;28;20030;-75
2022/05/28 07:37:31;;;;;;;10.70;7.03;;;27.50;92.10;;;;;;5025896;28;20522;-75
2022/05/28 07:39:58;;;;;;;12.55;7.32;;;28.40;92.00;;;;;;5027316;28;20024;-75
2022/05/28 07:42:27;;;;;;;10.48;5.82;;;27.70;91.60;;;;;;5034048;28;20026;-76
2022/05/28 07:44:53;;;;;;;13.07;6.63;;;27.90;91.50;;;;;;5023475;28;20033;-76
2022/05/28 07:47:19;;;;;;;10.63;7.03;;;27.90;91.70;;;;;;5028380;28;20030;-76
2022/05/28 07:49:45;;;;;;;11.50;6.93;;;28.40;91.70;;;;;;5032215;28;20143;-76
2022/05/28 07:52:10;;;;;;;10.50;6.50;;;28.50;91.10;;;;;;5028823;28;20122;-75
2022/05/28 07:54:36;;;;;;;13.30;6.68;;;28.40;91.20;;;;;;5024515;28;20041;-76
2022/05/28 07:57:03;;;;;;;10.02;6.10;;;28.20;91.10;;;;;;5025911;28;20094;-76
2022/05/28 07:59:29;;;;;;;9.60;6.97;;;27.50;90.90;;;;;;5027905;28;20048;-76
2022/05/28 08:01:56;;;;;;;12.40;6.90;;;26.50;92.00;;;;;;5028115;28;20029;-76
2022/05/28 08:04:22;;;;;;;10.45;6.22;;;26.60;92.40;;;;;;5027169;28;20183;-76
2022/05/28 08:06:48;;;;;;;9.90;6.05;;;26.30;91.90;;;;;;5028031;28;20112;-76
2022/05/28 08:09:13;;;;;;;7.85;5.22;;;26.10;91.90;;;;;;5028290;28;20590;-75
2022/05/28 08:11:40;;;;;;;9.18;5.93;;;26.40;92.20;;;;;;5020174;28;20610;-75
2022/05/28 08:14:05;;;;;;;8.05;5.35;;;26.00;91.70;;;;;;5027835;28;20108;-75
2022/05/28 08:16:31;;;;;;;11.98;6.00;;;25.60;92.20;;;;;;5026898;28;20180;-75
2022/05/28 08:18:57;;;;;;;9.88;6.03;;;25.70;91.70;;;;;;5025290;28;20033;-75
2022/05/28 08:24:07;;;;;;;10.05;6.30;;;25.60;92.00;;;;;;5027491;28;20087;-75
2022/05/28 08:26:35;;;;;;;9.35;5.60;;;25.30;91.80;;;;;;5020546;28;20033;-75
2022/05/28 08:29:00;;;;;;;14.57;6.28;;;25.50;91.80;;;;;;5023372;28;20486;-75
2022/05/28 08:31:26;;;;;;;6.63;4.80;;;25.90;92.80;;;;;;5026614;28;20040;-75
2022/05/28 08:33:52;;;;;;;8.80;4.75;;;26.10;92.10;;;;;;5027292;28;20053;-75
2022/05/28 08:36:18;;;;;;;8.38;5.32;;;26.10;91.50;;;;;;5027850;28;20048;-75
2022/05/28 08:38:44;;;;;;;8.70;4.70;;;26.40;91.40;;;;;;5026456;28;20440;-75
2022/05/28 08:41:20;;;;;;;6.00;4.53;;;26.60;91.00;;;;;;5023878;28;20064;-75
2022/05/28 08:44:23;;;;;;;10.35;4.57;;;26.40;91.50;;;;;;5019036;28;20702;-75
2022/05/28 08:47:04;;;;;;;8.68;4.57;;;26.20;90.50;;;;;;5023555;28;20080;-75
2022/05/28 08:49:31;;;;;;;7.60;4.90;;;26.40;90.60;;;;;;5014166;28;20594;-75
2022/05/28 08:52:15;;;;;;;8.13;4.72;;;26.30;90.40;;;;;;5027135;28;20573;-75
2022/05/28 08:54:57;;;;;;;;;;;26.20;91.40;;;;;;5026977;28;20033;-75
2022/05/28 08:58:05;;;;;;;10.02;4.45;;;26.40;90.10;;;;;;5027493;28;19966;-75
2022/05/28 09:00:50;;;;;;;8.63;4.22;;;26.70;90.90;;;;;;5027215;28;20041;-75
2022/05/28 09:03:27;;;;;;;7.80;4.15;;;26.90;90.40;;;;;;5024900;28;20497;-75
2022/05/28 09:05:59;;;;;;;9.65;3.70;;;26.60;90.60;;;;;;5027457;28;20132;-75
2022/05/28 09:08:28;;;;;;;7.25;4.20;;;26.70;90.80;;;;;;5026570;28;20029;-75
2022/05/28 09:10:58;;;;;;;6.75;4.10;;;26.90;90.80;;;;;;5027114;28;20029;-75
2022/05/28 09:13:57;;;;;;;5.95;3.40;;;26.70;90.20;;;;;;5026678;28;20029;-75
2022/05/28 09:16:26;;;;;;;5.57;3.38;;;26.80;88.80;;;;;;5023906;28;20068;-75
2022/05/28 09:18:55;;;;;;;5.57;3.40;;;26.70;88.30;;;;;;5021451;28;20033;-74
2022/05/28 09:21:21;;;;;;;6.72;3.47;;;27.00;88.30;;;;;;5026336;28;20029;-74
2022/05/28 09:24:04;;;;;;;6.15;4.55;;;27.00;87.40;;;;;;5026462;28;20044;-74
2022/05/28 09:26:58;;;;;;;7.43;4.38;;;27.00;89.20;;;;;;5024822;28;20041;-75
2022/05/28 09:29:41;;;;;;;5.30;3.58;;;27.30;90.50;;;;;;5020877;28;20087;-75
2022/05/28 09:32:41;;;;;;;7.40;3.40;;;27.30;90.50;;;;;;5026730;28;20034;-75
2022/05/28 09:35:09;;;;;;;5.20;3.55;;;27.60;88.60;;;;;;5025574;28;20033;-75
2022/05/28 09:37:42;;;;;;;6.93;3.70;;;27.50;86.30;;;;;;5027402;28;20126;-75
2022/05/28 09:40:30;;;;;;;6.30;3.22;;;27.60;89.40;;;;;;5025359;28;20136;-75
2022/05/28 09:43:33;;;;;;;5.22;3.30;;;27.90;89.20;;;;;;5023610;28;20029;-75
2022/05/28 09:46:17;;;;;;;7.93;3.15;;;28.00;87.40;;;;;;5026397;28;20048;-74
2022/05/28 09:48:43;;;;;;;9.05;3.40;;;27.80;87.00;;;;;;5030683;28;20030;-75
2022/05/28 09:51:27;;;;;;;4.55;2.72;;;27.70;86.70;;;;;;5030413;28;20115;-75
2022/05/28 09:54:17;;;;;;;9.73;3.67;;;27.70;87.20;;;;;;5023811;28;20036;-75
2022/05/28 09:57:11;;;;;;;5.88;3.45;;;27.50;85.10;;;;;;5030418;28;20037;-75
2022/05/28 09:59:43;;;;;;;;;;;27.90;87.90;;;;;;5027288;28;20506;-75
2022/05/28 10:02:17;;;;;;;6.05;2.90;;;28.20;88.50;;;;;;5030583;28;19940;-75
2022/05/28 10:04:57;;;;;;;8.23;3.05;;;28.60;86.80;;;;;;5028926;28;20052;-76
2022/05/28 10:07:34;;;;;;;7.53;2.85;;;28.30;84.20;;;;;;5030359;28;20025;-75
2022/05/28 10:10:01;;;;;;;5.78;3.45;;;28.40;82.70;;;;;;5026034;28;20715;-75
2022/05/28 10:12:31;;;;;;;3.95;2.63;;;28.30;81.50;;;;;;5030087;28;20029;-76
2022/05/28 10:15:18;;;;;;;5.05;2.95;;;28.50;82.90;;;;;;5029406;28;20033;-75
2022/05/28 10:17:55;;;;;;;5.80;3.38;;;28.30;84.20;;;;;;5027591;28;20057;-75
2022/05/28 10:20:21;;;;;;;4.32;2.60;;;28.40;84.60;;;;;;5029698;28;20575;-75
2022/05/28 10:22:50;;;;;;;4.80;2.63;;;28.80;84.90;;;;;;5030319;28;20033;-75
2022/05/28 10:25:47;;;;;;;4.35;2.83;;;29.00;84.10;;;;;;5029142;28;20045;-75
2022/05/28 10:28:13;;;;;;;5.43;2.53;;;28.80;82.70;;;;;;5027990;28;20060;-75
2022/05/28 10:30:38;;;;;;;4.63;2.72;;;28.90;83.40;;;;;;5029319;28;20447;-75
2022/05/28 10:33:18;;;;;;;4.07;2.60;;;28.60;81.80;;;;;;5028300;28;20064;-75
2022/05/28 10:35:45;;;;;;;4.28;2.53;;;28.80;83.40;;;;;;5020234;28;20022;-75
2022/05/28 10:38:11;;;;;;;6.05;2.25;;;29.30;85.00;;;;;;5029682;28;20030;-75
2022/05/28 10:41:02;;;;;;;6.72;2.72;;;29.40;83.80;;;;;;5029586;28;20036;-75
2022/05/28 10:43:37;;;;;;;4.95;2.10;;;29.30;81.40;;;;;;5019896;28;20038;-75
2022/05/28 10:46:44;;;;;;;6.90;2.15;;;29.50;82.20;;;;;;5029555;28;20052;-75
2022/05/28 10:49:34;;;;;;;4.40;2.22;;;29.70;82.10;;;;;;5017184;28;20046;-75
2022/05/28 10:51:59;;;;;;;2.95;1.60;;;29.50;80.40;;;;;;5029871;28;20435;-75
2022/05/28 10:54:25;;;;;;;5.82;2.38;;;29.80;82.30;;;;;;5029549;28;20036;-75
2022/05/28 10:57:28;;;;;;;4.18;1.98;;;30.10;82.10;;;;;;5028456;28;20037;-75
2022/05/28 11:00:30;;;;;;;5.15;2.97;;;29.60;82.00;;;;;;5029051;28;20096;-75
2022/05/28 11:03:23;;;;;;;6.72;3.50;;;29.40;81.70;;;;;;5023304;28;20053;-75
2022/05/28 11:06:20;;;;;;;3.97;1.92;;;29.80;80.40;;;;;;5022187;28;20099;-75
2022/05/28 11:09:06;;;;;;;5.57;2.70;;;29.70;81.80;;;;;;5028651;28;20029;-75
2022/05/28 11:12:04;;;;;;;8.32;3.45;;;29.20;81.60;;;;;;5016255;28;20053;-75
2022/05/28 11:15:04;;;;;;;8.57;4.07;;;29.50;84.20;;;;;;5028905;28;20029;-75
2022/05/28 11:17:54;;;;;;;8.63;4.30;;;29.70;85.70;;;;;;5018595;28;20364;-76
2022/05/28 11:20:52;;;;;;;8.82;4.18;;;29.70;84.70;;;;;;5028236;28;20021;-75
2022/05/28 11:23:36;;;;;;;7.28;4.22;;;29.50;84.40;;;;;;5013036;28;20513;-75
2022/05/28 11:26:34;;;;;;;11.50;5.05;;;28.70;87.90;;;;;;5028241;28;20038;-75
2022/05/28 11:29:18;;;;;;;10.40;4.65;;;28.40;89.20;;;;;;5028016;28;20100;-75
2022/05/28 11:31:52;;;;;;;8.93;5.32;;;28.20;89.10;;;;;;5027788;28;20026;-75
2022/05/28 11:34:23;;;;;;;9.15;5.35;;;28.00;89.40;;;;;;5024096;28;20030;-75
2022/05/28 11:36:58;;;;;;;11.85;5.72;;;27.50;89.90;;;;;;5027018;28;20136;-75
2022/05/28 11:39:38;;;;;;;8.13;5.90;;;27.30;90.30;;;;;;5027909;28;20124;-75
2022/05/28 11:42:31;;;;;;;9.95;5.85;;;27.20;90.30;;;;;;5017531;28;20033;-75
2022/05/28 11:44:59;;;;;;;13.95;5.82;;;27.40;90.40;;;;;;5027478;28;20041;-75
2022/05/28 11:47:59;;;;;;;12.15;5.93;;;27.20;90.40;;;;;;5028644;28;20057;-75
2022/05/28 11:53:28;;;;;;;9.65;5.63;;;27.40;90.80;;;;;;5026160;28;20095;-75
2022/05/28 11:55:58;;;;;;;7.22;5.10;;;27.50;90.30;;;;;;5028408;28;20364;-75
2022/05/28 11:58:56;;;;;;;9.50;5.60;;;27.90;90.50;;;;;;5027993;28;20044;-75
2022/05/28 12:01:27;;;;;;;7.85;5.80;;;27.80;90.80;;;;;;5018211;28;20041;-75
2022/05/28 12:03:53;;;;;;;8.82;4.90;;;27.60;91.10;;;;;;5027263;28;20037;-75
2022/05/28 12:06:25;;;;;;;9.45;5.05;;;27.60;91.10;;;;;;5027369;28;20041;-75
2022/05/28 12:09:11;;;;;;;11.30;5.10;;;27.50;91.30;;;;;;5020208;28;20025;-76
2022/05/28 12:11:48;;;;;;;10.95;5.63;;;27.20;91.60;;;;;;5027985;28;20036;-75
2022/05/28 12:14:34;;;;;;;9.32;5.18;;;26.80;91.60;;;;;;5028301;28;20032;-76
2022/05/28 12:17:21;;;;;;;13.15;5.60;;;26.40;92.00;;;;;;5025104;28;20037;-75
2022/05/28 12:20:02;;;;;;;10.18;5.70;;;26.10;92.00;;;;;;5025372;28;20037;-75
2022/05/28 12:22:39;;;;;;;15.23;6.50;;;25.70;92.20;;;;;;5026662;28;20044;-75
2022/05/28 12:25:11;;;;;;;8.48;5.63;;;25.70;92.30;;;;;;5026151;28;20083;-75
2022/05/28 12:27:57;;;;;;;9.05;5.75;;;25.60;92.70;;;;;;5028374;28;20033;-75
2022/05/28 12:30:33;;;;;;;9.35;6.03;;;25.60;92.50;;;;;;5027040;28;20050;-75
2022/05/28 12:32:59;;;;;;;9.13;6.25;;;25.40;92.70;;;;;;5026776;28;20111;-75
2022/05/28 12:35:31;;;;;;;8.10;5.60;;;25.30;92.90;;;;;;5036465;28;20037;-76
2022/05/28 12:38:03;;;;;;;8.45;5.90;;;25.30;93.10;;;;;;5031565;28;20034;-75
2022/05/28 12:40:40;;;;;;;10.15;5.88;;;25.20;93.40;;;;;;5027455;28;20031;-75
2022/05/28 12:43:15;;;;;;;11.18;6.40;;;24.80;93.70;;;;;;5019400;28;20049;-74
2022/05/28 12:45:43;;;;;;;10.75;5.15;;;24.90;94.40;;;;;;5021019;28;20064;-73
2022/05/28 12:48:16;;;;;;;8.75;4.95;;;24.70;93.60;;;;;;5021099;28;20105;-74
2022/05/28 12:50:49;;;;;;;7.75;4.13;;;24.60;93.90;;;;;;5013972;28;20049;-75
2022/05/28 12:53:20;;;;;;;8.48;5.07;;;24.10;94.40;;;;;;5022664;28;20092;-75
2022/05/28 12:55:46;;;;;;;11.88;4.47;;;24.10;95.60;;;;;;5026399;28;20033;-75
2022/05/28 12:58:26;;;;;;;8.18;4.85;;;23.80;95.20;;;;;;5014840;28;20120;-75
2022/05/28 13:00:55;;;;;;;9.52;4.38;;;23.90;95.90;;;;;;5016155;28;20036;-75
2022/05/28 13:03:26;;;;;;;7.72;4.65;;;23.90;95.70;;;;;;5020191;28;20028;-75
2022/05/28 13:06:15;;;;;;;9.05;4.40;;;23.80;95.60;;;;;;5017117;28;20050;-75